Pagina principale
METAR-TAF:

METAR-TAF

Aeroporti :

Cairns, Australia

latitudine: 16-53S, longitudine: 145-45E, altezza: 3 m

Osservazione

Il bollettino è stato emesso 19 minuti fa, alle 11:30 UTC
Vento 8 kt da sud/sud-est
Temperature 24°C
Umidità 78%
Pressione 1015 hPa
Visibilità 10 km o più
Poco nuvoloso ad un'altezza di 2400 ft

METAR: YBCS 191130Z 16008KT 9999 FEW024 24/20 Q1015 NOSIG

Ora: 21:49 (11:49 UTC)

Previsione

Il bollettino è stato emesso 34 minuti fa, alle 11:15 UTC
Previsione valida dal 19 alle 12 UTC al 20 alle 12 UTC
Vento 12 kt da sud/sud-est
Visibilità 10 km o più
Nubi sparse ad un'altezza di 2400 ft
A partire da 19 alle 2300 UTC
Vento 15 kt da sud-est
Visibilità 10 km o più
Nubi sparse ad un'altezza di 2800 ft
A partire da 20 alle 0900 UTC
Vento 10 kt da sud/sud-est
Visibilità 10 km o più
Nubi sparse ad un'altezza di 2500 ft

TAF: YBCS 191115Z 1912/2012 15012KT 9999 SCT024 FM192300 13015KT 9999 SCT028 FM200900 15010KT 9999 SCT025

Osservazioni e previsioni meteorologiche di più di 4000 aeroporti (messaggi METAR e TAF).

Le stazioni disponibili sono rappresentate dai dischi gialli e rossi sulla carta.

Puntare il mouse per vedere il nome della stazione.

Clicca sopra per visualizzare le osservazioni e previsioni meteorologiche.

Per cambiare la mappa : fare clic sui pulsanti verdi con una croce nera per ingrandire, il pulsante verde con un trattino per diminuire, o sulla freccia verde per le mappe adiacenti.


METAR-TAF: